createdAt,value
2019-01-22T00:09:13.521Z,3.01
2019-01-22T00:20:12.164Z,3.01
2019-01-22T00:31:12.478Z,3.01
2019-01-22T00:42:12.739Z,3.00
2019-01-22T00:53:13.379Z,3.01
2019-01-22T01:04:14.637Z,3.01
2019-01-22T01:15:19.449Z,3.00
2019-01-22T01:26:16.648Z,3.00
2019-01-22T01:37:22.330Z,3.00
2019-01-22T01:48:26.298Z,3.00
2019-01-22T01:59:26.435Z,3.00
2019-01-22T02:10:27.604Z,2.99
2019-01-22T02:21:32.861Z,2.99
2019-01-22T02:32:33.816Z,3.00
2019-01-22T02:43:35.282Z,2.99
2019-01-22T02:54:39.340Z,2.99
2019-01-22T03:05:43.131Z,2.99
2019-01-22T03:16:48.289Z,2.99
2019-01-22T03:27:49.133Z,2.99
2019-01-22T03:38:47.371Z,2.98
2019-01-22T03:49:51.054Z,2.99
2019-01-22T04:00:55.641Z,2.98
2019-01-22T04:11:45.217Z,2.98
2019-01-22T04:22:49.989Z,2.98
2019-01-22T04:33:52.945Z,2.98
2019-01-22T04:44:56.166Z,2.98
2019-01-22T04:55:57.915Z,2.97
2019-01-22T05:06:55.067Z,2.97
2019-01-22T05:18:00.399Z,2.97
2019-01-22T05:29:05.608Z,2.97
2019-01-22T05:40:03.914Z,2.96
2019-01-22T05:51:06.768Z,2.96
2019-01-22T06:02:12.045Z,2.96
2019-01-22T06:13:14.032Z,2.96
2019-01-22T06:24:12.729Z,2.96
2019-01-22T06:35:13.886Z,2.96
2019-01-22T06:46:12.110Z,2.96
2019-01-22T06:57:16.528Z,2.96
2019-01-22T07:08:16.121Z,2.96
2019-01-22T07:19:16.251Z,2.96
2019-01-22T07:30:14.428Z,2.96
2019-01-22T07:41:15.660Z,2.98
2019-01-22T07:52:15.915Z,2.99
2019-01-22T08:03:14.543Z,3.00
2019-01-22T08:14:19.106Z,3.01
2019-01-22T08:25:24.293Z,3.02
2019-01-22T08:36:29.298Z,3.03
2019-01-22T08:47:26.286Z,3.04
2019-01-22T08:58:21.867Z,3.06
2019-01-22T09:09:24.028Z,3.07
2019-01-22T09:20:23.117Z,3.08
2019-01-22T09:31:24.198Z,3.10
2019-01-22T09:42:26.374Z,3.11
2019-01-22T09:53:24.431Z,3.12
2019-01-22T10:04:28.307Z,3.14
2019-01-22T10:15:27.322Z,3.14
2019-01-22T10:26:27.697Z,3.17
2019-01-22T10:37:28.963Z,3.19
2019-01-22T10:48:32.315Z,3.21
2019-01-22T10:59:33.540Z,3.24
2019-01-22T11:10:34.884Z,3.27
2019-01-22T11:21:34.034Z,3.29
2019-01-22T11:32:36.059Z,3.28
2019-01-22T11:43:36.654Z,3.34
2019-01-22T11:54:36.957Z,3.32
2019-01-22T12:05:41.167Z,3.43
2019-01-22T12:16:41.115Z,3.43
2019-01-22T12:27:43.058Z,3.33
2019-01-22T12:38:42.072Z,3.34
2019-01-22T12:49:46.567Z,3.34
2019-01-22T13:00:47.798Z,3.36
2019-01-22T13:11:42.339Z,3.33
2019-01-22T13:22:47.314Z,3.34
2019-01-22T13:33:44.635Z,3.33
2019-01-22T13:44:45.917Z,3.34
2019-01-22T13:55:47.925Z,3.40
2019-01-22T14:06:49.853Z,3.38
2019-01-22T14:17:49.295Z,3.39
2019-01-22T14:28:49.531Z,3.39
2019-01-22T14:39:48.206Z,3.39
2019-01-22T14:50:46.893Z,3.39
2019-01-22T15:01:41.839Z,3.37
2019-01-22T15:12:44.406Z,3.34
2019-01-22T15:23:45.199Z,3.33
2019-01-22T15:34:48.762Z,3.31
2019-01-22T15:45:51.129Z,3.29
2019-01-22T15:56:51.942Z,3.28
2019-01-22T16:07:49.207Z,3.27
2019-01-22T16:18:49.946Z,3.26
2019-01-22T16:29:48.549Z,3.26
2019-01-22T16:40:49.311Z,3.26
2019-01-22T16:51:43.482Z,3.25
2019-01-22T17:02:38.210Z,3.25
2019-01-22T17:13:39.932Z,3.24
2019-01-22T17:24:38.274Z,3.23
2019-01-22T17:35:41.932Z,3.23
2019-01-22T17:46:41.025Z,3.23
2019-01-22T17:57:21.489Z,3.22
2019-01-22T18:08:13.377Z,3.21
2019-01-22T18:19:16.999Z,3.21
2019-01-22T18:30:18.833Z,3.21
2019-01-22T18:41:17.705Z,3.20
2019-01-22T18:52:20.744Z,3.20
2019-01-22T19:03:16.562Z,3.19
2019-01-22T19:14:14.679Z,3.19
2019-01-22T19:25:10.516Z,3.18
2019-01-22T19:36:10.526Z,3.18
2019-01-22T19:47:08.489Z,3.18
2019-01-22T19:58:06.395Z,3.17
2019-01-22T20:09:07.805Z,3.17
2019-01-22T20:20:06.731Z,3.17
2019-01-22T20:31:00.388Z,3.16
2019-01-22T20:42:02.774Z,3.15
2019-01-22T20:53:01.503Z,3.15
2019-01-22T21:04:00.158Z,3.15
2019-01-22T21:14:58.718Z,3.14
2019-01-22T21:25:58.423Z,3.14
2019-01-22T21:37:00.352Z,3.13
2019-01-22T21:48:04.884Z,3.13
2019-01-22T21:59:09.222Z,3.13
2019-01-22T22:10:09.384Z,3.13
2019-01-22T22:21:13.990Z,3.12
2019-01-22T22:32:17.630Z,3.12
2019-01-22T22:43:21.469Z,3.12
2019-01-22T22:54:20.280Z,3.11
2019-01-22T23:05:23.245Z,3.11
2019-01-22T23:16:23.839Z,3.10
2019-01-22T23:27:27.031Z,3.10
2019-01-22T23:38:29.586Z,3.10
2019-01-22T23:49:34.163Z,3.10
